Terminal Aerodrome Forecast
Issued by NWS Wilmington, OH

Current Version | Previous Version | Text Only | Print | Product List | Glossary On
Versions: 1 2 3 4 5 6 7 8 9 10 11 12 13 14 15 16 17 18 19 20 21 22 23 24 25 26 27
000
FTUS41 KILN 020500
TAFILN
TAF
KILN 020520Z 0206/0306 04004KT P6SM SCT040 BKN060
     FM021300 10006KT P6SM -SHRA SCT025 OVC040
     FM022300 10006KT P6SM VCSH SCT025 OVC040
     FM030300 06008KT P6SM VCSH SCT025 OVC040=

USA.gov is the U.S. government's official web portal to all federal, state and local government web resources and services.